Terminal Aerodrome Forecast
Issued by NWS Pocatello, ID

Home | Current Version | Previous Version | Text Only | Print | Product List | Glossary On
Versions: 1 2 3 4 5 6 7 8 9 10 11 12 13 14 15 16 17 18 19 20 21 22 23 24 25 26 27
694
FTUS45 KPIH 202339
TAFPIH
TAF
KPIH 202339Z 2100/2124 21017G28KT P6SM VCSH SCT070 OVC090
     FM210200 21010KT 6SM -SHRA SCT010 BKN020 OVC030
     FM210600 21009KT 5SM -RA SCT008 BKN010 OVC020
     FM211800 24010KT P6SM -SHRA SCT010 BKN020 OVC030=

USA.gov is the U.S. government's official web portal to all federal, state and local government web resources and services.